createdAt,value
2018-07-28T00:02:20.090Z,71.34
2018-07-28T00:04:48.261Z,71.14
2018-07-28T00:07:16.423Z,71.60
2018-07-28T00:09:44.601Z,71.38
2018-07-28T00:12:12.740Z,71.31
2018-07-28T00:14:40.868Z,72.18
2018-07-28T00:17:09.088Z,72.42
2018-07-28T00:19:37.194Z,72.49
2018-07-28T00:22:05.368Z,72.87
2018-07-28T00:24:33.509Z,72.82
2018-07-28T00:27:01.634Z,73.33
2018-07-28T00:29:29.765Z,73.73
2018-07-28T00:31:57.936Z,74.37
2018-07-28T00:34:26.111Z,74.45
2018-07-28T00:36:54.268Z,73.99
2018-07-28T00:39:22.417Z,74.74
2018-07-28T00:41:50.533Z,74.72
2018-07-28T00:44:18.704Z,74.63
2018-07-28T00:46:46.784Z,74.76
2018-07-28T00:49:14.877Z,75.25
2018-07-28T00:51:43.032Z,75.42
2018-07-28T00:54:11.178Z,75.27
2018-07-28T00:56:39.312Z,75.93
2018-07-28T00:59:07.475Z,75.82
2018-07-28T01:01:35.555Z,76.48
2018-07-28T01:04:03.696Z,76.75
2018-07-28T01:06:31.825Z,76.89
2018-07-28T01:08:59.978Z,77.29
2018-07-28T01:11:28.120Z,77.03
2018-07-28T01:13:56.270Z,77.58
2018-07-28T01:16:24.399Z,77.43
2018-07-28T01:18:52.519Z,78.09
2018-07-28T01:21:20.657Z,78.40
2018-07-28T01:23:48.908Z,78.21
2018-07-28T01:26:17.068Z,78.36
2018-07-28T01:28:49.370Z,78.47
2018-07-28T01:31:17.517Z,78.69
2018-07-28T01:33:45.739Z,78.39
2018-07-28T01:36:13.901Z,79.30
2018-07-28T01:38:42.024Z,79.21
2018-07-28T01:41:10.156Z,79.57
2018-07-28T01:43:38.275Z,79.57
2018-07-28T01:46:06.378Z,80.03
2018-07-28T01:48:34.487Z,80.34
2018-07-28T01:51:02.661Z,80.88
2018-07-28T01:53:30.815Z,80.85
2018-07-28T01:55:58.980Z,81.44
2018-07-28T01:58:27.139Z,81.44
2018-07-28T02:00:55.264Z,81.48
2018-07-28T02:03:23.430Z,81.28
2018-07-28T02:05:51.601Z,81.58
2018-07-28T02:08:19.769Z,81.67
2018-07-28T02:10:47.902Z,82.10
2018-07-28T02:13:16.028Z,82.01
2018-07-28T02:15:44.303Z,81.98
2018-07-28T02:18:12.428Z,82.65
2018-07-28T02:20:40.591Z,82.48
2018-07-28T02:23:09.130Z,82.66
2018-07-28T02:25:37.276Z,82.80
2018-07-28T02:28:05.499Z,82.92
2018-07-28T02:30:33.588Z,82.93
2018-07-28T02:33:01.713Z,82.90
2018-07-28T02:35:29.825Z,83.32
2018-07-28T02:37:57.923Z,83.46
2018-07-28T02:40:26.044Z,83.53
2018-07-28T02:42:54.184Z,83.26
2018-07-28T02:45:22.721Z,83.09
2018-07-28T02:47:50.856Z,83.43
2018-07-28T02:50:18.937Z,83.20
2018-07-28T02:52:47.070Z,83.59
2018-07-28T02:55:15.223Z,83.94
2018-07-28T02:57:43.357Z,84.00
2018-07-28T03:00:11.473Z,84.06
2018-07-28T03:02:39.592Z,84.14
2018-07-28T03:05:08.351Z,83.84
2018-07-28T03:07:36.508Z,84.13
2018-07-28T03:10:05.050Z,84.27
2018-07-28T03:12:33.124Z,84.73
2018-07-28T03:15:02.724Z,84.53
2018-07-28T03:17:30.877Z,84.85
2018-07-28T03:19:59.026Z,85.51
2018-07-28T03:22:27.181Z,84.91
2018-07-28T03:24:55.320Z,85.29
2018-07-28T03:27:23.421Z,85.26
2018-07-28T03:29:51.535Z,85.51
2018-07-28T03:32:19.654Z,85.64
2018-07-28T03:34:47.802Z,85.64
2018-07-28T03:37:15.962Z,86.08
2018-07-28T03:39:44.085Z,86.09
2018-07-28T03:42:12.250Z,85.98
2018-07-28T03:44:40.439Z,86.13
2018-07-28T03:47:08.612Z,86.53
2018-07-28T03:49:36.747Z,86.15
2018-07-28T03:52:04.908Z,86.44
2018-07-28T03:54:33.022Z,86.13
2018-07-28T03:57:01.134Z,86.26
2018-07-28T03:59:29.268Z,86.23
2018-07-28T04:01:57.459Z,86.35
2018-07-28T04:04:25.661Z,87.01
2018-07-28T04:06:53.814Z,87.09
2018-07-28T04:09:21.937Z,86.55
2018-07-28T04:11:50.109Z,86.79
2018-07-28T04:14:18.354Z,86.17
2018-07-28T04:16:46.440Z,85.88
2018-07-28T04:19:14.606Z,85.33
2018-07-28T04:21:42.795Z,85.24
2018-07-28T04:24:10.978Z,85.00
2018-07-28T04:26:39.139Z,84.73
2018-07-28T04:29:07.296Z,84.32
2018-07-28T04:31:35.464Z,84.70
2018-07-28T04:34:03.709Z,84.05
2018-07-28T04:36:31.891Z,84.48
2018-07-28T04:39:00.102Z,83.58
2018-07-28T04:41:28.245Z,84.09
2018-07-28T04:43:56.417Z,83.78
2018-07-28T04:46:24.601Z,83.80
2018-07-28T04:48:52.741Z,83.27
2018-07-28T04:51:20.868Z,83.49
2018-07-28T04:53:49.030Z,83.66
2018-07-28T04:56:17.182Z,83.95
2018-07-28T04:58:45.371Z,83.71
2018-07-28T05:01:13.529Z,82.98
2018-07-28T05:03:41.637Z,81.27
2018-07-28T05:06:09.801Z,78.60
2018-07-28T05:08:37.975Z,74.69
2018-07-28T05:11:06.125Z,69.37
2018-07-28T05:13:34.243Z,64.37
2018-07-28T05:16:02.412Z,62.67
2018-07-28T05:18:30.530Z,64.03
2018-07-28T05:20:58.774Z,62.78
2018-07-28T05:23:26.908Z,61.05
2018-07-28T05:25:55.077Z,58.37
2018-07-28T05:28:23.243Z,57.40
2018-07-28T05:30:51.434Z,59.36
2018-07-28T05:33:19.593Z,61.57
2018-07-28T05:35:47.742Z,59.60
2018-07-28T05:38:15.906Z,58.90
2018-07-28T05:40:44.099Z,58.70
2018-07-28T05:43:12.844Z,56.24
2018-07-28T05:45:40.988Z,53.81
2018-07-28T05:48:09.188Z,54.54
2018-07-28T05:50:37.308Z,55.72
2018-07-28T05:53:05.695Z,56.52
2018-07-28T05:55:33.783Z,54.26
2018-07-28T05:58:01.899Z,54.81
2018-07-28T06:00:30.024Z,54.82
2018-07-28T06:02:58.173Z,54.04
2018-07-28T06:05:26.299Z,55.17
2018-07-28T06:07:54.460Z,55.00
2018-07-28T06:10:22.599Z,54.52
2018-07-28T06:12:50.759Z,54.81
2018-07-28T06:15:18.904Z,54.37
2018-07-28T06:17:47.076Z,53.99
2018-07-28T06:20:15.268Z,56.88
2018-07-28T06:22:43.373Z,55.05
2018-07-28T06:25:11.534Z,54.18
2018-07-28T06:27:39.657Z,54.83
2018-07-28T06:30:09.069Z,57.33
2018-07-28T06:32:37.300Z,56.12
2018-07-28T06:35:05.435Z,56.63
2018-07-28T06:37:33.534Z,54.41
2018-07-28T06:40:01.695Z,52.32
2018-07-28T06:42:29.909Z,51.05
2018-07-28T06:44:58.064Z,51.98
2018-07-28T06:47:26.229Z,52.87
2018-07-28T06:49:54.383Z,51.62
2018-07-28T06:52:22.569Z,52.25
2018-07-28T06:54:50.724Z,53.49
2018-07-28T06:57:18.852Z,52.37
2018-07-28T06:59:46.971Z,50.14
2018-07-28T07:02:15.121Z,50.46
2018-07-28T07:04:43.283Z,51.37
2018-07-28T07:07:11.914Z,51.61
2018-07-28T07:09:40.012Z,47.39
2018-07-28T07:12:08.105Z,47.52
2018-07-28T07:14:36.317Z,48.41
2018-07-28T07:17:04.504Z,49.16
2018-07-28T07:19:32.653Z,50.35
2018-07-28T07:22:00.788Z,50.31
2018-07-28T07:24:28.887Z,50.02
2018-07-28T07:26:56.980Z,50.42
2018-07-28T07:29:25.109Z,46.79
2018-07-28T07:31:53.252Z,45.30
2018-07-28T07:34:21.355Z,47.24
2018-07-28T07:36:49.468Z,47.34
2018-07-28T07:39:18.394Z,47.95
2018-07-28T07:41:46.548Z,49.35
2018-07-28T07:44:14.649Z,49.84
2018-07-28T07:46:42.723Z,48.38
2018-07-28T07:49:10.857Z,49.80
2018-07-28T07:51:38.932Z,49.81
2018-07-28T07:54:07.065Z,49.44
2018-07-28T07:56:35.147Z,51.24
2018-07-28T07:59:03.658Z,50.61
2018-07-28T08:01:31.740Z,47.43
2018-07-28T08:03:59.853Z,47.21
2018-07-28T08:06:28.000Z,45.77
2018-07-28T08:08:56.121Z,46.54
2018-07-28T08:11:24.375Z,46.63
2018-07-28T08:13:52.489Z,47.25
2018-07-28T08:16:20.628Z,48.28
2018-07-28T08:18:48.812Z,48.98
2018-07-28T08:21:16.957Z,46.29
2018-07-28T08:23:45.086Z,44.19
2018-07-28T08:26:13.256Z,44.82
2018-07-28T08:28:41.381Z,46.20
2018-07-28T08:31:09.573Z,46.32
2018-07-28T08:33:37.696Z,46.53
2018-07-28T08:36:05.900Z,45.36
2018-07-28T08:38:34.077Z,45.60
2018-07-28T08:41:02.256Z,45.55
2018-07-28T08:43:30.335Z,44.86
2018-07-28T08:45:58.434Z,45.68
2018-07-28T08:48:26.571Z,46.76
2018-07-28T08:50:54.667Z,46.37
2018-07-28T08:53:22.788Z,43.68
2018-07-28T08:55:50.909Z,43.57
2018-07-28T08:58:19.022Z,42.38
2018-07-28T09:00:47.138Z,43.68
2018-07-28T09:03:15.239Z,44.29
2018-07-28T09:05:43.361Z,44.88
2018-07-28T09:08:11.482Z,42.73
2018-07-28T09:10:39.721Z,42.50
2018-07-28T09:13:08.111Z,42.96
2018-07-28T09:15:36.209Z,43.59
2018-07-28T09:18:04.378Z,42.88
2018-07-28T09:20:32.459Z,42.63
2018-07-28T09:23:00.627Z,42.85
2018-07-28T09:25:28.778Z,43.29
2018-07-28T09:27:56.899Z,42.88
2018-07-28T09:30:24.986Z,44.07
2018-07-28T09:32:53.053Z,43.52
2018-07-28T09:35:21.160Z,43.33
2018-07-28T09:37:49.380Z,43.84
2018-07-28T09:40:17.408Z,43.78
2018-07-28T09:42:45.512Z,43.38
2018-07-28T09:45:13.678Z,43.51
2018-07-28T09:47:41.850Z,43.91
2018-07-28T09:50:09.932Z,43.70
2018-07-28T09:52:38.056Z,42.63
2018-07-28T09:55:06.188Z,41.96
2018-07-28T09:57:34.298Z,42.53
2018-07-28T10:00:02.346Z,41.06
2018-07-28T10:02:30.471Z,40.26
2018-07-28T10:04:58.586Z,40.57
2018-07-28T10:07:26.688Z,39.88
2018-07-28T10:09:55.122Z,40.02
2018-07-28T10:12:23.227Z,41.36
2018-07-28T10:14:53.620Z,40.87
2018-07-28T10:17:21.849Z,40.12
2018-07-28T10:19:50.009Z,39.91
2018-07-28T10:22:18.162Z,39.66
2018-07-28T10:24:46.372Z,39.56
2018-07-28T10:27:15.304Z,39.91
2018-07-28T10:29:43.574Z,39.60
2018-07-28T10:32:11.771Z,40.10
2018-07-28T10:34:39.914Z,41.13
2018-07-28T10:37:08.147Z,41.24
2018-07-28T10:39:36.286Z,39.81
2018-07-28T10:42:04.446Z,40.61
2018-07-28T10:44:32.649Z,40.70
2018-07-28T10:47:00.774Z,40.43
2018-07-28T10:49:28.917Z,39.83
2018-07-28T10:51:57.119Z,38.77
2018-07-28T10:54:25.246Z,38.42
2018-07-28T10:56:53.372Z,39.07
2018-07-28T10:59:21.488Z,39.12
2018-07-28T11:01:49.596Z,38.69
2018-07-28T11:04:17.734Z,39.57
2018-07-28T11:06:45.853Z,39.20
2018-07-28T11:09:13.985Z,38.99
2018-07-28T11:11:42.112Z,39.15
2018-07-28T11:14:10.302Z,38.92
2018-07-28T11:16:38.445Z,37.25
2018-07-28T11:19:06.663Z,37.47
2018-07-28T11:21:34.692Z,37.88
2018-07-28T11:24:03.095Z,38.26
2018-07-28T11:26:31.248Z,37.92
2018-07-28T11:28:59.324Z,36.41
2018-07-28T11:31:38.916Z,36.03
2018-07-28T11:34:56.086Z,36.44
2018-07-28T11:37:35.519Z,36.45
2018-07-28T11:40:15.117Z,36.56
2018-07-28T11:42:54.635Z,36.38
2018-07-28T11:45:22.800Z,35.47
2018-07-28T11:47:50.928Z,36.14
2018-07-28T11:50:19.095Z,37.41
2018-07-28T11:52:47.200Z,37.95
2018-07-28T11:55:15.377Z,36.70
2018-07-28T11:57:43.463Z,36.54
2018-07-28T12:00:11.672Z,35.14
2018-07-28T12:02:40.259Z,35.17
2018-07-28T12:05:08.751Z,35.68
2018-07-28T12:07:36.867Z,35.53
2018-07-28T12:10:06.835Z,35.22
2018-07-28T12:12:34.969Z,35.33
2018-07-28T12:15:03.143Z,36.59
2018-07-28T12:17:31.285Z,36.51
2018-07-28T12:19:59.418Z,37.65
2018-07-28T12:22:27.538Z,38.44
2018-07-28T12:24:55.628Z,37.49
2018-07-28T12:27:23.727Z,37.91
2018-07-28T12:29:51.855Z,36.10
2018-07-28T12:32:20.081Z,37.09
2018-07-28T12:34:48.256Z,35.18
2018-07-28T12:37:16.361Z,35.51
2018-07-28T12:39:44.513Z,35.35
2018-07-28T12:42:12.644Z,35.36
2018-07-28T12:44:40.810Z,34.93
2018-07-28T12:47:08.936Z,35.64
2018-07-28T12:49:37.176Z,35.03
2018-07-28T12:52:05.244Z,35.61
2018-07-28T12:54:33.337Z,36.23
2018-07-28T12:57:01.482Z,35.68
2018-07-28T12:59:29.652Z,35.38
2018-07-28T13:01:57.774Z,35.50
2018-07-28T13:04:26.006Z,36.29
2018-07-28T13:06:54.151Z,35.82
2018-07-28T13:09:22.281Z,35.14
2018-07-28T13:11:50.412Z,34.59
2018-07-28T13:14:18.573Z,34.81
2018-07-28T13:16:46.903Z,34.65
2018-07-28T13:19:15.039Z,34.76
2018-07-28T13:21:43.192Z,34.84
2018-07-28T13:24:11.301Z,35.03
2018-07-28T13:26:39.445Z,34.30
2018-07-28T13:29:07.591Z,33.87
2018-07-28T13:31:35.725Z,33.42
2018-07-28T13:34:03.802Z,34.28
2018-07-28T13:36:31.903Z,34.52
2018-07-28T13:39:00.076Z,35.07
2018-07-28T13:41:28.208Z,34.63
2018-07-28T13:43:56.392Z,34.37
2018-07-28T13:46:24.566Z,35.27
2018-07-28T13:48:52.690Z,35.46
2018-07-28T13:51:20.807Z,35.80
2018-07-28T13:53:48.980Z,35.49
2018-07-28T13:56:17.154Z,35.59
2018-07-28T13:58:45.300Z,36.77
2018-07-28T14:01:13.436Z,41.83
2018-07-28T14:03:41.602Z,44.45
2018-07-28T14:06:10.185Z,47.44
2018-07-28T14:08:38.207Z,49.09
2018-07-28T14:11:06.529Z,50.70
2018-07-28T14:13:34.636Z,51.35
2018-07-28T14:16:02.749Z,52.14
2018-07-28T14:18:31.130Z,55.02
2018-07-28T14:20:59.149Z,57.72
2018-07-28T14:23:27.417Z,60.97
2018-07-28T14:25:55.543Z,66.12
2018-07-28T14:28:23.689Z,66.14
2018-07-28T14:30:52.195Z,68.16
2018-07-28T14:33:20.351Z,71.63
2018-07-28T14:35:48.566Z,72.30
2018-07-28T14:38:16.761Z,73.08
2018-07-28T14:40:44.894Z,72.69
2018-07-28T14:43:14.244Z,72.92
2018-07-28T14:45:51.706Z,72.81
2018-07-28T14:48:19.968Z,72.90
2018-07-28T14:50:48.182Z,73.83
2018-07-28T14:53:16.347Z,74.83
2018-07-28T14:55:44.527Z,77.75
2018-07-28T14:58:12.669Z,78.86
2018-07-28T15:00:40.836Z,79.23
2018-07-28T15:03:09.751Z,81.58
2018-07-28T15:05:38.152Z,83.21
2018-07-28T15:08:06.348Z,83.41
2018-07-28T15:10:34.543Z,84.53
2018-07-28T15:13:02.720Z,84.81
2018-07-28T15:15:30.926Z,86.00
2018-07-28T15:17:59.139Z,86.20
2018-07-28T15:20:27.377Z,86.13
2018-07-28T15:22:55.600Z,86.75
2018-07-28T15:25:23.895Z,88.09
2018-07-28T15:27:52.192Z,87.73
2018-07-28T15:30:20.486Z,87.36
2018-07-28T15:32:48.786Z,88.25
2018-07-28T15:35:17.095Z,87.49
2018-07-28T15:37:45.936Z,87.03
2018-07-28T15:40:14.109Z,86.77
2018-07-28T15:42:42.280Z,88.17
2018-07-28T15:45:10.427Z,87.23
2018-07-28T15:47:38.685Z,87.58
2018-07-28T15:50:06.965Z,89.33
2018-07-28T15:52:35.191Z,87.93
2018-07-28T15:55:03.377Z,88.94
2018-07-28T15:57:31.463Z,88.56
2018-07-28T15:59:59.655Z,89.69
2018-07-28T16:02:27.823Z,90.68
2018-07-28T16:04:56.172Z,89.70
2018-07-28T16:07:24.293Z,88.96
2018-07-28T16:09:52.434Z,89.66
2018-07-28T16:12:20.629Z,89.77
2018-07-28T16:14:48.869Z,89.58
2018-07-28T16:17:16.978Z,89.37
2018-07-28T16:19:45.186Z,86.83
2018-07-28T16:22:13.346Z,89.23
2018-07-28T16:24:41.530Z,89.78
2018-07-28T16:27:09.729Z,89.41
2018-07-28T16:29:37.964Z,87.98
2018-07-28T16:32:06.206Z,88.01
2018-07-28T16:34:34.553Z,87.76
2018-07-28T16:37:02.761Z,87.75
2018-07-28T16:39:30.996Z,88.18
2018-07-28T16:41:59.295Z,88.52
2018-07-28T16:44:28.330Z,88.90
2018-07-28T16:46:56.487Z,89.75
2018-07-28T16:49:24.751Z,89.45
2018-07-28T16:51:52.950Z,88.80
2018-07-28T16:54:21.166Z,88.70
2018-07-28T16:56:49.359Z,89.36
2018-07-28T16:59:17.619Z,89.59
2018-07-28T17:01:45.824Z,89.59
2018-07-28T17:04:14.013Z,88.97
2018-07-28T17:06:42.230Z,88.93
2018-07-28T17:09:12.189Z,89.75
2018-07-28T17:11:40.874Z,89.38
2018-07-28T17:14:09.296Z,88.82
2018-07-28T17:16:37.535Z,88.97
2018-07-28T17:19:05.887Z,89.51
2018-07-28T17:21:34.115Z,89.53
2018-07-28T17:24:02.608Z,89.30
2018-07-28T17:26:30.824Z,89.73
2018-07-28T17:28:59.257Z,89.14
2018-07-28T17:31:27.432Z,88.93
2018-07-28T17:33:55.780Z,89.00
2018-07-28T17:36:23.934Z,88.22
2018-07-28T17:38:52.200Z,89.52
2018-07-28T17:41:20.372Z,90.01
2018-07-28T17:43:48.543Z,89.58
2018-07-28T17:46:16.710Z,89.44
2018-07-28T17:48:44.792Z,89.48
2018-07-28T17:51:13.095Z,89.24
2018-07-28T17:53:41.251Z,89.08
2018-07-28T17:56:09.506Z,89.25
2018-07-28T17:58:37.803Z,89.46
2018-07-28T18:01:06.149Z,89.67
2018-07-28T18:03:34.368Z,90.08
2018-07-28T18:06:02.539Z,89.75
2018-07-28T18:08:30.673Z,89.96
2018-07-28T18:10:58.841Z,89.41
2018-07-28T18:13:27.150Z,89.73
2018-07-28T18:15:55.199Z,89.42
2018-07-28T18:18:23.434Z,89.79
2018-07-28T18:20:51.645Z,90.43
2018-07-28T18:23:19.814Z,90.39
2018-07-28T18:25:48.025Z,90.55
2018-07-28T18:28:16.169Z,90.10
2018-07-28T18:30:44.371Z,90.49
2018-07-28T18:33:12.447Z,90.23
2018-07-28T18:35:40.611Z,90.09
2018-07-28T18:38:08.771Z,90.45
2018-07-28T18:40:36.930Z,90.26
2018-07-28T18:43:06.043Z,90.26
2018-07-28T18:45:34.191Z,90.56
2018-07-28T18:48:02.332Z,90.42
2018-07-28T18:50:30.495Z,90.83
2018-07-28T18:52:58.625Z,90.36
2018-07-28T18:55:26.775Z,90.50
2018-07-28T18:57:54.924Z,91.10
2018-07-28T19:00:23.072Z,91.00
2018-07-28T19:02:51.188Z,90.90
2018-07-28T19:05:19.329Z,91.08
2018-07-28T19:07:47.476Z,91.10
2018-07-28T19:10:15.615Z,90.97
2018-07-28T19:12:49.136Z,91.86
2018-07-28T19:15:17.251Z,91.77
2018-07-28T19:17:50.648Z,92.00
2018-07-28T19:20:18.772Z,91.88
2018-07-28T19:22:52.236Z,91.46
2018-07-28T19:25:20.381Z,91.82
2018-07-28T19:27:53.797Z,92.03
2018-07-28T19:30:21.960Z,91.73
2018-07-28T19:32:50.056Z,91.60
2018-07-28T19:35:18.176Z,92.18
2018-07-28T19:37:46.327Z,92.40
2018-07-28T19:40:14.472Z,92.42
2018-07-28T19:42:48.081Z,92.27
2018-07-28T19:45:16.166Z,92.52
2018-07-28T19:47:44.277Z,92.14
2018-07-28T19:50:12.387Z,92.39
2018-07-28T19:52:40.553Z,92.89
2018-07-28T19:55:08.730Z,92.53
2018-07-28T19:57:36.884Z,92.25
2018-07-28T20:00:05.480Z,92.22
2018-07-28T20:02:33.609Z,91.75
2018-07-28T20:05:01.722Z,92.14
2018-07-28T20:07:29.980Z,93.03
2018-07-28T20:09:58.051Z,93.39
2018-07-28T20:12:26.172Z,92.92
2018-07-28T20:14:54.376Z,93.00
2018-07-28T20:17:22.583Z,93.43
2018-07-28T20:19:50.816Z,93.04
2018-07-28T20:22:18.907Z,92.54
2018-07-28T20:24:47.151Z,92.90
2018-07-28T20:27:15.423Z,92.67
2018-07-28T20:29:43.566Z,92.53
2018-07-28T20:32:11.823Z,92.89
2018-07-28T20:34:39.910Z,92.52
2018-07-28T20:37:08.047Z,92.68
2018-07-28T20:39:36.169Z,92.62
2018-07-28T20:42:04.694Z,93.07
2018-07-28T20:44:32.912Z,92.87
2018-07-28T20:47:01.121Z,92.81
2018-07-28T20:49:29.316Z,92.47
2018-07-28T20:51:57.486Z,92.39
2018-07-28T20:54:25.644Z,92.41
2018-07-28T20:56:53.811Z,93.08
2018-07-28T20:59:21.960Z,92.58
2018-07-28T21:01:50.062Z,92.43
2018-07-28T21:04:18.206Z,92.83
2018-07-28T21:06:46.368Z,92.50
2018-07-28T21:09:14.549Z,92.39
2018-07-28T21:11:42.657Z,92.78
2018-07-28T21:14:10.798Z,92.17
2018-07-28T21:16:38.947Z,91.30
2018-07-28T21:19:07.060Z,91.34
2018-07-28T21:21:35.153Z,90.39
2018-07-28T21:24:03.345Z,90.32
2018-07-28T21:26:31.453Z,90.19
2018-07-28T21:28:59.617Z,90.63
2018-07-28T21:31:27.743Z,90.40
2018-07-28T21:33:55.923Z,91.16
2018-07-28T21:36:24.058Z,91.03
2018-07-28T21:38:52.254Z,91.33
2018-07-28T21:41:20.433Z,91.31
2018-07-28T21:43:48.681Z,90.80
2018-07-28T21:46:16.851Z,90.12
2018-07-28T21:48:45.032Z,90.03
2018-07-28T21:51:13.204Z,90.02
2018-07-28T21:53:41.361Z,90.24
2018-07-28T21:56:09.540Z,89.33
2018-07-28T21:58:37.713Z,89.13
2018-07-28T22:01:11.380Z,89.05
2018-07-28T22:03:39.561Z,89.54
2018-07-28T22:06:07.746Z,89.35
2018-07-28T22:08:35.876Z,89.02
2018-07-28T22:11:04.055Z,88.74
2018-07-28T22:13:32.190Z,89.00
2018-07-28T22:16:00.331Z,89.80
2018-07-28T22:18:28.536Z,90.05
2018-07-28T22:20:56.671Z,90.04
2018-07-28T22:23:24.903Z,91.00
2018-07-28T22:25:53.039Z,90.47
2018-07-28T22:28:21.184Z,90.18
2018-07-28T22:30:49.294Z,89.54
2018-07-28T22:33:17.434Z,90.70
2018-07-28T22:35:45.545Z,90.38
2018-07-28T22:38:13.643Z,89.67
2018-07-28T22:40:41.813Z,90.61
2018-07-28T22:43:10.179Z,90.46
2018-07-28T22:45:38.291Z,91.14
2018-07-28T22:48:06.426Z,90.85
2018-07-28T22:50:34.514Z,90.75
2018-07-28T22:53:02.657Z,90.58
2018-07-28T22:55:30.790Z,89.75
2018-07-28T22:57:58.914Z,89.53
2018-07-28T23:00:27.028Z,89.44
2018-07-28T23:02:55.212Z,89.48
2018-07-28T23:05:23.394Z,89.32
2018-07-28T23:07:51.650Z,89.31
2018-07-28T23:10:19.805Z,89.41
2018-07-28T23:12:48.040Z,89.26
2018-07-28T23:15:16.167Z,89.94
2018-07-28T23:17:44.510Z,89.90
2018-07-28T23:20:12.645Z,89.93
2018-07-28T23:22:40.792Z,89.93
2018-07-28T23:25:09.090Z,89.02
2018-07-28T23:27:37.207Z,89.12
2018-07-28T23:30:08.026Z,89.44
2018-07-28T23:32:36.121Z,89.81
2018-07-28T23:35:04.273Z,89.42
2018-07-28T23:37:32.364Z,89.09
2018-07-28T23:40:00.468Z,89.39
2018-07-28T23:42:28.609Z,89.42
2018-07-28T23:44:56.707Z,89.24
2018-07-28T23:47:24.830Z,89.62
2018-07-28T23:49:52.985Z,89.95
2018-07-28T23:52:21.124Z,90.20
2018-07-28T23:54:49.235Z,90.44
2018-07-28T23:57:17.336Z,90.55
2018-07-28T23:59:45.462Z,91.14
